createdAt,value
2023-08-19T00:02:12.971Z,22.92
2023-08-19T00:04:41.084Z,22.92
2023-08-19T00:07:09.069Z,22.93
2023-08-19T00:09:39.305Z,22.91
2023-08-19T00:12:07.698Z,22.91
2023-08-19T00:14:35.679Z,22.90
2023-08-19T00:17:04.503Z,22.90
2023-08-19T00:19:33.715Z,22.90
2023-08-19T00:22:01.519Z,22.89
2023-08-19T00:24:29.314Z,22.89
2023-08-19T00:26:58.521Z,22.90
2023-08-19T00:29:26.301Z,22.89
2023-08-19T00:31:54.186Z,22.88
2023-08-19T00:34:22.287Z,22.88
2023-08-19T00:36:51.646Z,22.87
2023-08-19T00:39:19.490Z,22.86
2023-08-19T00:41:49.263Z,22.86
2023-08-19T00:44:17.441Z,22.86
2023-08-19T00:46:45.246Z,22.86
2023-08-19T00:49:13.346Z,22.84
2023-08-19T00:51:41.254Z,22.84
2023-08-19T00:54:10.659Z,22.84
2023-08-19T00:56:39.528Z,22.84
2023-08-19T00:59:07.481Z,22.82
2023-08-19T01:01:35.369Z,22.81
2023-08-19T01:04:03.361Z,22.80
2023-08-19T01:06:38.706Z,22.79
2023-08-19T01:09:18.266Z,22.78
2023-08-19T01:11:53.870Z,22.77
2023-08-19T01:14:35.665Z,22.70
2023-08-19T01:17:06.012Z,22.76
2023-08-19T01:19:34.745Z,22.75
2023-08-19T01:22:06.081Z,22.76
2023-08-19T01:24:37.580Z,22.74
2023-08-19T01:27:06.620Z,22.73
2023-08-19T01:29:34.857Z,22.73
2023-08-19T01:32:04.503Z,22.72
2023-08-19T01:34:32.590Z,22.72
2023-08-19T01:37:08.504Z,22.70
2023-08-19T01:39:39.215Z,22.69
2023-08-19T01:42:08.047Z,22.68
2023-08-19T01:44:37.192Z,22.68
2023-08-19T01:47:14.386Z,22.68
2023-08-19T01:49:42.206Z,22.66
2023-08-19T01:52:10.009Z,22.66
2023-08-19T01:54:39.186Z,22.65
2023-08-19T01:57:08.029Z,22.65
2023-08-19T01:59:36.256Z,22.64
2023-08-19T02:02:04.293Z,22.64
2023-08-19T02:04:32.148Z,22.64
2023-08-19T02:07:00.167Z,22.65
2023-08-19T02:09:30.342Z,22.64
2023-08-19T02:11:59.751Z,22.64
2023-08-19T02:14:27.633Z,22.64
2023-08-19T02:16:55.412Z,22.64
2023-08-19T02:19:23.424Z,22.64
2023-08-19T02:21:51.211Z,22.64
2023-08-19T02:24:19.310Z,22.64
2023-08-19T02:26:47.074Z,22.64
2023-08-19T02:29:16.338Z,22.63
2023-08-19T02:34:12.722Z,22.63
2023-08-19T02:36:40.787Z,22.62
2023-08-19T02:39:08.776Z,22.62
2023-08-19T02:41:36.543Z,22.62
2023-08-19T02:44:04.686Z,22.62
2023-08-19T02:46:33.939Z,22.62
2023-08-19T02:49:01.767Z,22.62
2023-08-19T02:51:29.557Z,22.61
2023-08-19T02:53:57.367Z,22.61
2023-08-19T02:56:26.125Z,22.60
2023-08-19T02:58:53.947Z,22.60
2023-08-19T03:01:21.968Z,22.58
2023-08-19T03:03:51.268Z,22.57
2023-08-19T03:06:19.169Z,22.57
2023-08-19T03:08:46.967Z,22.57
2023-08-19T03:11:14.834Z,22.56
2023-08-19T03:13:42.647Z,22.54
2023-08-19T03:16:10.924Z,22.55
2023-08-19T03:18:39.021Z,22.54
2023-08-19T03:21:08.183Z,22.54
2023-08-19T03:23:36.075Z,22.52
2023-08-19T03:26:04.177Z,22.52
2023-08-19T03:28:32.117Z,22.51
2023-08-19T03:31:00.006Z,22.51
2023-08-19T03:33:27.887Z,22.51
2023-08-19T03:36:00.831Z,22.50
2023-08-19T03:38:30.018Z,22.50
2023-08-19T03:40:57.977Z,22.49
2023-08-19T03:43:25.890Z,22.49
2023-08-19T03:45:53.678Z,22.48
2023-08-19T03:48:21.480Z,22.47
2023-08-19T03:50:49.279Z,22.47
2023-08-19T03:53:17.100Z,22.47
2023-08-19T03:55:49.790Z,22.47
2023-08-19T03:58:17.594Z,22.45
2023-08-19T04:00:46.062Z,22.45
2023-08-19T04:03:13.857Z,22.45
2023-08-19T04:05:41.672Z,22.46
2023-08-19T04:08:09.570Z,22.45
2023-08-19T04:10:37.398Z,22.45
2023-08-19T04:13:06.858Z,22.45
2023-08-19T04:15:34.882Z,22.45
2023-08-19T04:18:03.278Z,22.46
2023-08-19T04:20:31.113Z,22.46
2023-08-19T04:22:58.893Z,22.44
2023-08-19T04:25:26.893Z,22.44
2023-08-19T04:27:54.993Z,22.44
2023-08-19T04:30:24.218Z,22.44
2023-08-19T04:32:52.332Z,22.44
2023-08-19T04:35:20.267Z,22.44
2023-08-19T04:37:48.303Z,22.43
2023-08-19T04:40:16.251Z,22.43
2023-08-19T04:42:44.529Z,22.43
2023-08-19T04:45:12.311Z,22.42
2023-08-19T04:47:41.502Z,22.42
2023-08-19T04:50:10.464Z,22.41
2023-08-19T04:52:38.593Z,22.43
2023-08-19T04:55:07.555Z,22.42
2023-08-19T04:57:35.409Z,22.42
2023-08-19T05:00:03.725Z,22.40
2023-08-19T05:02:31.568Z,22.40
2023-08-19T05:05:00.942Z,22.39
2023-08-19T05:07:28.733Z,22.39
2023-08-19T05:09:56.881Z,22.38
2023-08-19T05:12:25.278Z,22.38
2023-08-19T05:14:54.229Z,22.37
2023-08-19T05:17:22.167Z,22.36
2023-08-19T05:19:50.241Z,22.36
2023-08-19T05:22:19.481Z,22.36
2023-08-19T05:24:47.281Z,22.36
2023-08-19T05:27:15.063Z,22.33
2023-08-19T05:29:42.893Z,22.34
2023-08-19T05:32:10.855Z,22.34
2023-08-19T05:34:38.655Z,22.33
2023-08-19T05:37:06.963Z,22.33
2023-08-19T05:39:36.221Z,22.32
2023-08-19T05:42:04.421Z,22.33
2023-08-19T05:44:32.536Z,22.33
2023-08-19T05:47:00.520Z,22.32
2023-08-19T05:49:28.804Z,22.32
2023-08-19T05:51:56.668Z,22.32
2023-08-19T05:54:24.821Z,22.31
2023-08-19T05:56:54.025Z,22.32
2023-08-19T05:59:21.870Z,22.31
2023-08-19T06:01:49.664Z,22.31
2023-08-19T06:04:17.846Z,22.29
2023-08-19T06:06:45.844Z,22.30
2023-08-19T06:09:13.634Z,22.32
2023-08-19T06:11:49.317Z,22.31
2023-08-19T06:14:18.591Z,22.31
2023-08-19T06:16:47.321Z,22.31
2023-08-19T06:19:17.656Z,22.24
2023-08-19T06:21:45.527Z,22.31
2023-08-19T06:24:13.516Z,22.33
2023-08-19T06:26:41.348Z,22.32
2023-08-19T06:29:09.168Z,22.33
2023-08-19T06:31:39.118Z,22.33
2023-08-19T06:34:07.782Z,22.33
2023-08-19T06:36:38.356Z,22.33
2023-08-19T06:39:09.440Z,22.33
2023-08-19T06:41:41.400Z,22.34
2023-08-19T06:44:09.967Z,22.34
2023-08-19T06:46:39.618Z,22.34
2023-08-19T06:49:08.290Z,22.36
2023-08-19T06:51:36.787Z,22.35
2023-08-19T06:54:05.234Z,22.36
2023-08-19T06:56:35.973Z,22.35
2023-08-19T06:59:11.899Z,22.37
2023-08-19T07:01:47.949Z,22.36
2023-08-19T07:04:16.021Z,22.37
2023-08-19T07:06:44.735Z,22.38
2023-08-19T07:09:14.226Z,22.39
2023-08-19T07:11:42.581Z,22.39
2023-08-19T07:14:11.869Z,22.40
2023-08-19T07:16:41.690Z,22.39
2023-08-19T07:19:13.464Z,22.40
2023-08-19T07:21:43.588Z,22.40
2023-08-19T07:24:13.178Z,22.42
2023-08-19T07:26:41.826Z,22.43
2023-08-19T07:29:10.571Z,22.43
2023-08-19T07:31:38.989Z,22.36
2023-08-19T07:34:08.271Z,22.46
2023-08-19T07:36:36.378Z,22.46
2023-08-19T07:39:05.171Z,22.46
2023-08-19T07:41:33.275Z,22.48
2023-08-19T07:44:01.069Z,22.49
2023-08-19T07:46:30.008Z,22.50
2023-08-19T07:48:57.928Z,22.51
2023-08-19T07:51:27.335Z,22.52
2023-08-19T07:53:55.131Z,22.53
2023-08-19T07:56:22.932Z,22.54
2023-08-19T07:58:51.146Z,22.52
2023-08-19T08:01:19.025Z,22.56
2023-08-19T08:03:47.437Z,22.55
2023-08-19T08:06:15.522Z,22.56
2023-08-19T08:08:44.777Z,22.57
2023-08-19T08:11:12.584Z,22.58
2023-08-19T08:13:40.430Z,22.58
2023-08-19T08:16:09.223Z,22.59
2023-08-19T08:18:37.161Z,22.61
2023-08-19T08:21:04.962Z,22.61
2023-08-19T08:23:32.789Z,22.61
2023-08-19T08:26:02.137Z,22.63
2023-08-19T08:28:29.979Z,22.64
2023-08-19T08:30:57.759Z,22.65
2023-08-19T08:33:27.116Z,22.64
2023-08-19T08:35:54.934Z,22.68
2023-08-19T08:38:22.816Z,22.68
2023-08-19T08:40:50.688Z,22.69
2023-08-19T08:43:19.881Z,22.69
2023-08-19T08:45:48.151Z,22.71
2023-08-19T08:48:18.317Z,22.70
2023-08-19T08:50:47.369Z,22.72
2023-08-19T08:53:15.698Z,22.73
2023-08-19T08:55:43.651Z,22.73
2023-08-19T08:58:11.557Z,22.74
2023-08-19T09:00:41.728Z,22.76
2023-08-19T09:03:11.830Z,22.75
2023-08-19T09:05:42.770Z,22.77
2023-08-19T09:08:15.941Z,22.78
2023-08-19T09:10:47.889Z,22.79
2023-08-19T09:13:22.216Z,22.79
2023-08-19T09:15:51.624Z,22.80
2023-08-19T09:18:20.363Z,22.82
2023-08-19T09:20:49.077Z,22.82
2023-08-19T09:23:17.215Z,22.82
2023-08-19T09:25:45.358Z,22.84
2023-08-19T09:28:18.206Z,22.84
2023-08-19T09:30:46.070Z,22.85
2023-08-19T09:33:21.725Z,22.86
2023-08-19T09:35:59.560Z,22.86
2023-08-19T09:38:28.331Z,22.88
2023-08-19T09:41:00.715Z,22.89
2023-08-19T09:43:28.960Z,22.90
2023-08-19T09:46:00.279Z,22.91
2023-08-19T09:48:29.707Z,22.94
2023-08-19T09:50:57.798Z,22.94
2023-08-19T09:53:30.395Z,22.94
2023-08-19T09:55:58.547Z,22.98
2023-08-19T09:58:27.342Z,22.98
2023-08-19T10:00:55.178Z,23.00
2023-08-19T10:03:23.777Z,23.02
2023-08-19T10:05:54.384Z,23.05
2023-08-19T10:08:24.864Z,23.06
2023-08-19T10:10:52.929Z,23.08
2023-08-19T10:13:24.087Z,23.04
2023-08-19T10:15:52.507Z,23.11
2023-08-19T10:18:25.269Z,23.13
2023-08-19T10:20:57.995Z,23.14
2023-08-19T10:23:27.838Z,23.13
2023-08-19T10:25:56.428Z,23.17
2023-08-19T10:28:26.105Z,23.17
2023-08-19T10:31:07.839Z,23.20
2023-08-19T10:33:40.595Z,23.22
2023-08-19T10:36:11.089Z,23.24
2023-08-19T10:41:20.384Z,23.29
2023-08-19T10:44:02.156Z,23.30
2023-08-19T10:46:33.652Z,23.33
2023-08-19T10:49:01.977Z,23.35
2023-08-19T10:51:48.988Z,23.36
2023-08-19T10:54:17.432Z,23.40
2023-08-19T10:56:46.701Z,23.40
2023-08-19T10:59:14.743Z,23.40
2023-08-19T11:01:43.279Z,23.41
2023-08-19T11:04:11.463Z,23.42
2023-08-19T11:06:40.821Z,23.43
2023-08-19T11:09:10.060Z,23.43
2023-08-19T11:11:38.905Z,23.44
2023-08-19T11:14:07.471Z,23.44
2023-08-19T11:16:35.707Z,23.46
2023-08-19T11:19:03.756Z,23.47
2023-08-19T11:21:32.617Z,23.46
2023-08-19T11:24:00.434Z,23.48
2023-08-19T11:26:29.704Z,23.47
2023-08-19T11:28:57.545Z,23.48
2023-08-19T11:31:25.672Z,23.48
2023-08-19T11:33:54.369Z,23.51
2023-08-19T11:36:26.452Z,23.50
2023-08-19T11:38:56.765Z,23.50
2023-08-19T11:41:28.727Z,23.50
2023-08-19T11:43:58.417Z,23.44
2023-08-19T11:46:29.662Z,23.51
2023-08-19T11:48:58.244Z,23.50
2023-08-19T11:51:27.480Z,23.49
2023-08-19T11:54:02.751Z,23.49
2023-08-19T11:56:30.885Z,23.50
2023-08-19T11:59:00.135Z,23.43
2023-08-19T12:01:28.041Z,23.49
2023-08-19T12:03:56.795Z,23.48
2023-08-19T12:06:24.885Z,23.47
2023-08-19T12:08:52.649Z,23.46
2023-08-19T12:11:26.923Z,23.45
2023-08-19T12:13:55.010Z,23.47
2023-08-19T12:16:24.316Z,23.46
2023-08-19T12:18:52.244Z,23.46
2023-08-19T12:21:20.060Z,23.47
2023-08-19T12:23:47.887Z,23.46
2023-08-19T12:26:15.718Z,23.44
2023-08-19T12:28:44.950Z,23.45
2023-08-19T12:31:12.989Z,23.45
2023-08-19T12:33:42.212Z,23.45
2023-08-19T12:36:19.255Z,23.45
2023-08-19T12:38:47.749Z,23.46
2023-08-19T12:41:16.004Z,23.45
2023-08-19T12:43:43.865Z,23.45
2023-08-19T12:46:12.262Z,23.45
2023-08-19T12:48:40.424Z,23.46
2023-08-19T12:51:09.655Z,23.47
2023-08-19T12:53:37.639Z,23.47
2023-08-19T12:56:05.804Z,23.46
2023-08-19T12:58:34.213Z,23.46
2023-08-19T13:01:02.103Z,23.44
2023-08-19T13:03:29.992Z,23.43
2023-08-19T13:05:58.223Z,23.44
2023-08-19T13:08:27.399Z,23.44
2023-08-19T13:10:55.229Z,23.42
2023-08-19T13:13:23.303Z,23.43
2023-08-19T13:15:51.177Z,23.44
2023-08-19T13:18:20.204Z,23.44
2023-08-19T13:20:48.097Z,23.44
2023-08-19T13:23:16.240Z,23.45
2023-08-19T13:25:45.428Z,23.43
2023-08-19T13:28:13.244Z,23.43
2023-08-19T13:30:41.092Z,23.42
2023-08-19T13:33:09.090Z,23.42
2023-08-19T13:35:37.083Z,23.42
2023-08-19T13:38:06.230Z,23.40
2023-08-19T13:40:34.366Z,23.41
2023-08-19T13:43:04.224Z,23.40
2023-08-19T13:45:32.120Z,23.40
2023-08-19T13:48:13.929Z,23.37
2023-08-19T13:50:43.699Z,23.37
2023-08-19T13:53:11.477Z,23.36
2023-08-19T13:55:40.230Z,23.36
2023-08-19T13:58:09.603Z,23.35
2023-08-19T14:00:37.731Z,23.35
2023-08-19T14:03:06.815Z,23.35
2023-08-19T14:05:35.981Z,23.35
2023-08-19T14:08:04.192Z,23.35
2023-08-19T14:10:32.132Z,23.34
2023-08-19T14:13:00.994Z,23.32
2023-08-19T14:15:30.216Z,23.31
2023-08-19T14:17:58.219Z,23.30
2023-08-19T14:20:26.277Z,23.29
2023-08-19T14:22:54.082Z,23.29
2023-08-19T14:25:21.930Z,23.28
2023-08-19T14:27:49.786Z,23.26
2023-08-19T14:30:17.624Z,23.27
2023-08-19T14:32:46.915Z,23.27
2023-08-19T14:35:14.857Z,23.28
2023-08-19T14:37:43.168Z,23.28
2023-08-19T14:40:11.851Z,23.30
2023-08-19T14:42:39.995Z,23.29
2023-08-19T14:45:09.023Z,23.30
2023-08-19T14:47:37.211Z,23.31
2023-08-19T14:50:08.225Z,23.32
2023-08-19T14:52:36.433Z,23.31
2023-08-19T14:55:05.221Z,23.32
2023-08-19T14:57:34.294Z,23.32
2023-08-19T15:00:02.620Z,23.32
2023-08-19T15:02:45.788Z,23.32
2023-08-19T15:05:15.316Z,23.34
2023-08-19T15:07:43.174Z,23.32
2023-08-19T15:10:12.418Z,23.36
2023-08-19T15:12:40.349Z,23.37
2023-08-19T15:15:11.260Z,23.36
2023-08-19T15:17:39.224Z,23.38
2023-08-19T15:20:08.872Z,23.39
2023-08-19T15:22:38.141Z,23.40
2023-08-19T15:25:07.040Z,23.41
2023-08-19T15:27:35.077Z,23.42
2023-08-19T15:30:03.120Z,23.43
2023-08-19T15:32:30.985Z,23.43
2023-08-19T15:34:58.896Z,23.43
2023-08-19T15:37:26.709Z,23.44
2023-08-19T15:39:55.862Z,23.45
2023-08-19T15:42:23.655Z,23.46
2023-08-19T15:44:51.533Z,23.46
2023-08-19T15:47:19.362Z,23.45
2023-08-19T15:49:47.238Z,23.47
2023-08-19T15:52:15.047Z,23.47
2023-08-19T15:54:43.371Z,23.47
2023-08-19T15:57:12.554Z,23.48
2023-08-19T15:59:40.391Z,23.49
2023-08-19T16:02:08.510Z,23.38
2023-08-19T16:04:36.771Z,23.49
2023-08-19T16:07:05.889Z,23.49
2023-08-19T16:09:33.929Z,23.49
2023-08-19T16:12:04.211Z,23.48
2023-08-19T16:14:33.421Z,23.48
2023-08-19T16:17:02.547Z,23.47
2023-08-19T16:19:30.380Z,23.40
2023-08-19T16:21:58.285Z,23.45
2023-08-19T16:24:26.113Z,23.48
2023-08-19T16:26:54.094Z,23.48
2023-08-19T16:29:21.943Z,23.48
2023-08-19T16:31:51.306Z,23.48
2023-08-19T16:34:19.142Z,23.50
2023-08-19T16:36:48.356Z,23.49
2023-08-19T16:39:16.176Z,23.50
2023-08-19T16:41:44.204Z,23.50
2023-08-19T16:44:12.203Z,23.50
2023-08-19T16:46:40.105Z,23.41
2023-08-19T16:49:09.272Z,23.52
2023-08-19T16:51:37.243Z,23.52
2023-08-19T16:54:05.674Z,23.52
2023-08-19T16:56:33.472Z,23.52
2023-08-19T16:59:01.287Z,23.46
2023-08-19T17:01:29.119Z,23.53
2023-08-19T17:03:56.927Z,23.54
2023-08-19T17:06:26.120Z,23.55
2023-08-19T17:08:53.976Z,23.55
2023-08-19T17:11:22.253Z,23.55
2023-08-19T17:13:50.049Z,23.57
2023-08-19T17:16:17.857Z,23.57
2023-08-19T17:18:46.083Z,23.56
2023-08-19T17:21:13.885Z,23.56
2023-08-19T17:23:43.549Z,23.57
2023-08-19T17:26:11.357Z,23.57
2023-08-19T17:28:39.339Z,23.57
2023-08-19T17:31:08.609Z,23.57
2023-08-19T17:33:36.632Z,23.57
2023-08-19T17:36:06.167Z,23.49
2023-08-19T17:38:34.247Z,23.56
2023-08-19T17:41:04.964Z,23.55
2023-08-19T17:43:33.178Z,23.58
2023-08-19T17:46:02.739Z,23.58
2023-08-19T17:48:31.466Z,23.58
2023-08-19T17:51:00.667Z,23.57
2023-08-19T17:53:29.777Z,23.57
2023-08-19T17:55:58.237Z,23.54
2023-08-19T17:58:30.922Z,23.55
2023-08-19T18:00:59.411Z,23.53
2023-08-19T18:03:27.780Z,23.52
2023-08-19T18:05:56.731Z,23.52
2023-08-19T18:08:24.617Z,23.52
2023-08-19T18:10:53.076Z,23.51
2023-08-19T18:13:20.932Z,23.51
2023-08-19T18:15:50.308Z,23.52
2023-08-19T18:18:18.321Z,23.46
2023-08-19T18:20:46.298Z,23.49
2023-08-19T18:23:14.102Z,23.50
2023-08-19T18:25:42.161Z,23.42
2023-08-19T18:28:09.986Z,23.42
2023-08-19T18:30:38.584Z,23.47
2023-08-19T18:33:07.916Z,23.46
2023-08-19T18:35:35.766Z,23.47
2023-08-19T18:38:03.690Z,23.47
2023-08-19T18:40:31.507Z,23.46
2023-08-19T18:42:59.322Z,23.46
2023-08-19T18:45:27.206Z,23.45
2023-08-19T18:48:09.613Z,23.45
2023-08-19T18:50:38.810Z,23.44
2023-08-19T18:53:07.455Z,23.42
2023-08-19T18:55:38.136Z,23.43
2023-08-19T18:58:06.347Z,23.42
2023-08-19T19:00:34.980Z,23.41
2023-08-19T19:03:03.896Z,23.38
2023-08-19T19:05:33.837Z,23.38
2023-08-19T19:08:02.030Z,23.38
2023-08-19T19:10:30.339Z,23.37
2023-08-19T19:12:58.593Z,23.37
2023-08-19T19:15:26.610Z,23.35
2023-08-19T19:17:56.916Z,23.35
2023-08-19T19:20:26.818Z,23.34
2023-08-19T19:22:56.958Z,23.31
2023-08-19T19:25:24.771Z,23.33
2023-08-19T19:27:52.972Z,23.32
2023-08-19T19:30:22.561Z,23.33
2023-08-19T19:32:51.326Z,23.30
2023-08-19T19:35:20.507Z,23.30
2023-08-19T19:37:48.706Z,23.20
2023-08-19T19:40:18.906Z,23.26
2023-08-19T19:42:47.087Z,23.28
2023-08-19T19:45:15.388Z,23.29
2023-08-19T19:50:13.039Z,23.25
2023-08-19T19:52:41.246Z,23.25
2023-08-19T19:55:09.897Z,23.24
2023-08-19T19:57:39.292Z,23.23
2023-08-19T20:00:11.024Z,23.22
2023-08-19T20:02:39.618Z,23.21
2023-08-19T20:05:07.932Z,23.19
2023-08-19T20:07:36.236Z,23.19
2023-08-19T20:10:24.119Z,23.17
2023-08-19T20:12:54.181Z,23.15
2023-08-19T20:15:22.044Z,23.14
2023-08-19T20:17:52.112Z,23.05
2023-08-19T20:20:20.336Z,23.10
2023-08-19T20:22:51.220Z,23.10
2023-08-19T20:25:19.071Z,23.09
2023-08-19T20:27:48.073Z,23.07
2023-08-19T20:30:17.352Z,23.06
2023-08-19T20:32:45.196Z,23.05
2023-08-19T20:35:13.158Z,23.04
2023-08-19T20:37:41.038Z,23.02
2023-08-19T20:40:10.167Z,22.99
2023-08-19T20:42:40.789Z,22.99
2023-08-19T20:45:10.509Z,22.98
2023-08-19T20:47:40.047Z,22.94
2023-08-19T20:50:08.241Z,22.94
2023-08-19T20:52:36.244Z,22.92
2023-08-19T20:55:04.404Z,22.92
2023-08-19T20:57:32.699Z,22.91
2023-08-19T21:00:00.934Z,22.90
2023-08-19T21:02:28.853Z,22.88
2023-08-19T21:04:58.108Z,22.87
2023-08-19T21:07:25.898Z,22.86
2023-08-19T21:09:53.791Z,22.85
2023-08-19T21:12:21.812Z,22.84
2023-08-19T21:14:49.662Z,22.83
2023-08-19T21:17:17.533Z,22.81
2023-08-19T21:19:46.277Z,22.80
2023-08-19T21:22:15.641Z,22.80
2023-08-19T21:24:43.536Z,22.77
2023-08-19T21:27:12.882Z,22.77
2023-08-19T21:29:40.715Z,22.69
2023-08-19T21:32:08.578Z,22.74
2023-08-19T21:34:36.550Z,22.74
2023-08-19T21:37:04.387Z,22.72
2023-08-19T21:39:33.990Z,22.71
2023-08-19T21:42:01.810Z,22.69
2023-08-19T21:44:30.618Z,22.67
2023-08-19T21:46:58.448Z,22.67
2023-08-19T21:49:26.420Z,22.66
2023-08-19T21:51:54.371Z,22.64
2023-08-19T21:54:22.474Z,22.64
2023-08-19T21:56:51.703Z,22.61
2023-08-19T21:59:19.753Z,22.61
2023-08-19T22:01:47.549Z,22.58
2023-08-19T22:04:15.322Z,22.57
2023-08-19T22:06:43.544Z,22.56
2023-08-19T22:09:11.374Z,22.54
2023-08-19T22:11:40.375Z,22.52
2023-08-19T22:14:09.650Z,22.51
2023-08-19T22:16:37.562Z,22.49
2023-08-19T22:19:05.825Z,22.48
2023-08-19T22:21:33.787Z,22.45
2023-08-19T22:24:01.796Z,22.44
2023-08-19T22:26:29.774Z,22.42
2023-08-19T22:28:57.958Z,22.41
2023-08-19T22:31:27.150Z,22.38
2023-08-19T22:33:55.395Z,22.36
2023-08-19T22:36:23.246Z,22.36
2023-08-19T22:38:52.621Z,22.35
2023-08-19T22:41:20.600Z,22.32
2023-08-19T22:43:48.414Z,22.32
2023-08-19T22:46:16.282Z,22.30
2023-08-19T22:48:45.833Z,22.28
2023-08-19T22:51:13.647Z,22.26
2023-08-19T22:53:41.477Z,22.25
2023-08-19T22:56:09.345Z,22.24
2023-08-19T22:58:37.185Z,22.22
2023-08-19T23:01:05.582Z,22.21
2023-08-19T23:03:33.725Z,22.19
2023-08-19T23:06:03.277Z,22.18
2023-08-19T23:08:31.203Z,22.17
2023-08-19T23:10:59.120Z,22.17
2023-08-19T23:13:26.936Z,22.15
2023-08-19T23:15:54.799Z,22.14
2023-08-19T23:18:22.791Z,22.12
2023-08-19T23:20:50.607Z,22.11
2023-08-19T23:23:19.794Z,22.10
2023-08-19T23:25:48.001Z,22.08
2023-08-19T23:28:15.883Z,22.07
2023-08-19T23:30:43.714Z,22.05
2023-08-19T23:33:11.570Z,22.03
2023-08-19T23:35:39.371Z,22.03
2023-08-19T23:38:07.178Z,22.02
2023-08-19T23:40:36.338Z,22.00
2023-08-19T23:43:04.235Z,21.95
2023-08-19T23:45:32.082Z,21.89
2023-08-19T23:48:00.565Z,21.97
2023-08-19T23:50:29.237Z,21.96
2023-08-19T23:52:59.414Z,21.86
2023-08-19T23:55:28.144Z,21.93
2023-08-19T23:57:58.059Z,21.93
